Time;durP1;ratioP1;P1;durP2;ratioP2;P2;SDS_P1;SDS_P2;PMS_P1;PMS_P2;Temp;Humidity;BMP_temperature;BMP_pressure;BME280_temperature;BME280_humidity;BME280_pressure;Samples;Min_cycle;Max_cycle;Signal;HPM_P1;HPM_P2
2023/09/05 00:02:21;;;;;;;;;4.67;4.67;;;;;24.68;48.16;101272.91;5084070;27;45760;-59
2023/09/05 00:04:47;;;;;;;;;6.67;6.00;;;;;24.65;48.12;101275.94;5090677;27;45945;-59
2023/09/05 00:07:13;;;;;;;;;7.33;7.33;;;;;24.63;47.64;101267.97;5098680;27;45414;-59
2023/09/05 00:09:38;;;;;;;;;7.33;7.00;;;;;24.62;47.85;101271.66;5085299;27;45229;-59
2023/09/05 00:12:04;;;;;;;;;5.25;5.25;;;;;24.60;47.76;101270.94;5089792;27;45405;-59
2023/09/05 00:14:30;;;;;;;;;6.00;6.00;;;;;24.58;47.85;101271.09;5092663;27;45429;-59
2023/09/05 00:16:55;;;;;;;;;6.00;5.00;;;;;24.58;47.98;101272.97;5087595;27;45403;-59
2023/09/05 00:19:20;;;;;;;;;4.50;4.50;;;;;24.56;48.41;101281.31;5085063;27;68132;-59
2023/09/05 00:21:46;;;;;;;;;7.00;7.00;;;;;24.53;48.21;101270.72;5064666;27;64031;-59
2023/09/05 00:24:36;;;;;;;;;5.00;5.00;;;;;24.51;48.22;101274.59;5082095;27;72760;-59
2023/09/05 00:27:03;;;;;;;;;4.00;4.00;;;;;24.46;48.24;101264.22;5094730;27;45412;-59
2023/09/05 00:29:30;;;;;;;;;4.00;4.00;;;;;24.44;48.38;101263.50;5085538;27;45239;-59
2023/09/05 00:31:59;;;;;;;;;8.00;6.00;;;;;24.37;48.10;101265.16;5091975;27;45364;-59
2023/09/05 00:34:26;;;;;;;;;6.00;5.67;;;;;24.33;48.76;101266.50;5095502;27;46331;-59
2023/09/05 00:36:52;;;;;;;;;6.00;5.00;;;;;24.28;48.98;101261.50;5096363;27;45415;-59
2023/09/05 00:39:17;;;;;;;;;8.00;5.00;;;;;24.25;49.04;101259.94;5089051;27;45495;-59
2023/09/05 00:41:43;;;;;;;;;6.25;4.75;;;;;24.21;48.74;101261.28;5087110;27;67424;-59
2023/09/05 00:44:09;;;;;;;;;4.75;4.00;;;;;24.17;49.02;101259.88;5085475;27;46171;-59
2023/09/05 00:46:34;;;;;;;;;5.00;5.00;;;;;24.13;48.73;101269.31;5084004;27;45381;-59
2023/09/05 00:49:02;;;;;;;;;6.00;6.00;;;;;24.09;48.71;101263.38;5089946;27;66494;-59
2023/09/05 00:51:31;;;;;;;;;5.75;3.50;;;;;24.06;49.38;101251.97;5078458;27;45331;-59
2023/09/05 00:53:57;;;;;;;;;5.00;5.00;;;;;24.03;49.52;101263.97;5093971;27;47212;-59
2023/09/05 00:56:22;;;;;;;;;7.00;7.00;;;;;23.98;49.76;101260.03;5071217;27;45321;-59
2023/09/05 00:58:48;;;;;;;;;5.00;5.00;;;;;23.93;49.45;101261.31;5092637;27;66463;-59
2023/09/05 01:01:13;;;;;;;;;7.00;6.33;;;;;23.90;49.63;101267.06;5085312;27;69159;-59
2023/09/05 01:03:38;;;;;;;;;6.00;6.00;;;;;23.88;49.50;101258.16;5083633;27;46017;-59
2023/09/05 01:06:09;;;;;;;;;4.67;4.67;;;;;23.86;49.73;101259.38;5086411;27;57236;-59
2023/09/05 01:08:43;;;;;;;;;5.00;5.00;;;;;23.82;49.99;101258.81;5073475;27;45331;-59
2023/09/05 01:11:12;;;;;;;;;5.33;5.33;;;;;23.81;49.94;101256.25;5094259;27;45569;-59
2023/09/05 01:13:38;;;;;;;;;5.00;5.00;;;;;23.77;49.55;101259.25;5089367;27;45644;-59
2023/09/05 01:16:04;;;;;;;;;5.67;5.00;;;;;23.74;50.19;101261.41;5077976;27;45480;-59
2023/09/05 01:18:33;;;;;;;;;4.33;4.33;;;;;23.72;50.15;101255.28;5090147;27;45622;-59
2023/09/05 01:21:08;;;;;;;;;4.33;4.33;;;;;23.70;49.84;101252.75;5097799;27;45591;-59
2023/09/05 01:23:43;;;;;;;;;6.67;6.33;;;;;23.68;50.09;101256.63;5092490;27;46425;-59
2023/09/05 01:26:09;;;;;;;;;5.00;4.00;;;;;23.60;50.01;101247.34;5071955;27;45327;-59
2023/09/05 01:28:36;;;;;;;;;5.00;5.00;;;;;23.57;50.58;101252.22;5071870;27;45584;-59
2023/09/05 01:31:01;;;;;;;;;6.00;6.00;;;;;23.55;50.06;101249.66;5070751;28;45429;-59
2023/09/05 01:33:26;;;;;;;;;6.00;4.33;;;;;23.54;50.50;101258.81;5064833;27;73692;-59
2023/09/05 01:35:52;;;;;;;;;5.33;5.33;;;;;23.52;50.66;101249.09;5089155;27;72542;-59
2023/09/05 01:38:17;;;;;;;;;5.25;4.25;;;;;23.52;50.27;101251.81;5077475;27;66236;-59
2023/09/05 01:40:42;;;;;;;;;4.33;4.33;;;;;23.48;50.39;101248.56;5081477;27;70382;-59
2023/09/05 01:43:08;;;;;;;;;5.75;4.50;;;;;23.46;50.67;101247.84;5079634;27;75678;-59
2023/09/05 01:45:33;;;;;;;;;5.00;5.00;;;;;23.42;50.24;101249.16;5089634;27;69321;-59
2023/09/05 01:47:58;;;;;;;;;5.50;5.50;;;;;23.39;50.70;101238.63;5097761;27;62211;-59
2023/09/05 01:50:24;;;;;;;;;5.33;5.00;;;;;23.37;50.61;101246.03;5079809;27;59685;-59
2023/09/05 01:52:49;;;;;;;;;7.00;6.33;;;;;23.33;50.62;101245.47;5081128;27;47736;-59
2023/09/05 01:55:14;;;;;;;;;5.75;5.75;;;;;23.31;50.31;101244.78;5082448;27;68422;-59
2023/09/05 01:57:40;;;;;;;;;7.67;6.00;;;;;23.27;50.74;101241.53;5077325;28;47285;-59
2023/09/05 02:00:06;;;;;;;;;4.67;4.67;;;;;23.25;50.50;101237.25;5085841;27;57530;-59
2023/09/05 02:02:31;;;;;;;;;6.00;6.00;;;;;23.20;50.86;101239.56;5092409;27;46224;-59
2023/09/05 02:04:56;;;;;;;;;6.00;6.00;;;;;23.14;51.14;101235.59;5083142;27;73182;-59
2023/09/05 02:07:22;;;;;;;;;6.00;6.00;;;;;23.10;50.96;101235.00;5092262;27;68036;-59
2023/09/05 02:09:47;;;;;;;;;6.67;5.67;;;;;23.06;51.54;101233.59;5096010;27;45446;-59
2023/09/05 02:12:12;;;;;;;;;8.00;7.00;;;;;23.03;51.29;101236.56;5081103;27;71856;-59
2023/09/05 02:14:37;;;;;;;;;5.00;5.00;;;;;22.97;51.27;101226.31;5093112;27;69389;-59
2023/09/05 02:17:03;;;;;;;;;6.00;6.00;;;;;22.96;51.73;101224.63;5080484;27;67428;-59
2023/09/05 02:19:29;;;;;;;;;4.67;4.67;;;;;22.89;51.65;101221.66;5082160;27;67245;-59
2023/09/05 02:21:55;;;;;;;;;6.00;5.00;;;;;22.87;51.69;101225.50;5095176;27;47207;-59
2023/09/05 02:24:20;;;;;;;;;6.67;6.67;;;;;22.87;51.94;101228.22;5091019;27;45919;-59
2023/09/05 02:26:46;;;;;;;;;6.00;6.00;;;;;22.87;51.76;101228.22;5098106;27;69164;-59
2023/09/05 02:29:11;;;;;;;;;6.00;6.00;;;;;22.87;51.68;101230.94;5086082;27;69358;-59
2023/09/05 02:31:37;;;;;;;;;7.00;7.00;;;;;22.88;51.54;101238.03;5089563;27;73022;-59
2023/09/05 02:34:02;;;;;;;;;8.67;8.00;;;;;22.84;51.70;101240.22;5093372;27;65235;-59
2023/09/05 02:36:30;;;;;;;;;8.00;7.00;;;;;22.80;51.63;101233.34;5087200;27;65373;-59
2023/09/05 02:38:56;;;;;;;;;9.00;6.67;;;;;22.77;51.79;101222.81;5085422;27;45350;-59
2023/09/05 02:41:21;;;;;;;;;5.00;5.00;;;;;22.76;51.99;101226.50;5091482;27;45306;-59
2023/09/05 02:43:47;;;;;;;;;6.00;5.00;;;;;22.75;51.54;101222.09;5068341;27;67518;-59
2023/09/05 02:46:12;;;;;;;;;5.67;5.67;;;;;22.72;51.74;101225.09;5078568;27;68082;-59
2023/09/05 02:48:39;;;;;;;;;6.00;5.00;;;;;22.70;52.04;101229.84;5095835;27;68706;-59
2023/09/05 02:51:10;;;;;;;;;3.67;3.67;;;;;22.68;51.84;101232.66;5101044;27;45978;-59
2023/09/05 02:53:36;;;;;;;;;6.00;6.00;;;;;22.65;52.17;101229.41;5081692;27;45367;-59
2023/09/05 02:56:02;;;;;;;;;7.33;5.67;;;;;22.63;51.96;101227.69;5087852;27;45811;-59
2023/09/05 02:58:28;;;;;;;;;6.00;6.00;;;;;22.63;52.21;101227.69;5088129;27;45465;-59
2023/09/05 03:01:05;;;;;;;;;7.00;6.33;;;;;22.63;52.36;101222.28;5072741;27;46970;-59
2023/09/05 03:03:30;;;;;;;;;6.33;6.33;;;;;22.63;52.36;101227.69;5091021;27;45671;-59
2023/09/05 03:05:56;;;;;;;;;4.00;4.00;;;;;22.63;52.18;101224.09;5095466;27;45660;-59
2023/09/05 03:08:22;;;;;;;;;6.00;6.00;;;;;22.61;52.61;101224.25;5091772;27;45415;-59
2023/09/05 03:10:52;;;;;;;;;6.00;6.00;;;;;22.59;52.35;101222.69;5081558;27;46103;-59
2023/09/05 03:13:18;;;;;;;;;8.00;7.33;;;;;22.56;52.60;101226.56;5087283;27;45398;-60
2023/09/05 03:15:43;;;;;;;;;8.33;7.00;;;;;22.54;53.13;101234.00;5081123;27;45486;-59
2023/09/05 03:18:08;;;;;;;;;6.00;6.00;;;;;22.49;52.80;101225.44;5093518;27;45350;-59
2023/09/05 03:20:34;;;;;;;;;6.33;5.00;;;;;22.49;52.54;101216.44;5094041;27;49803;-59
2023/09/05 03:22:59;;;;;;;;;8.00;6.00;;;;;22.47;52.63;101211.16;5091952;27;68287;-59
2023/09/05 03:25:24;;;;;;;;;6.00;6.00;;;;;22.44;52.79;101211.47;5084924;27;61784;-59
2023/09/05 03:27:50;;;;;;;;;4.00;4.00;;;;;22.42;52.80;101203.47;5077976;27;64325;-59
2023/09/05 03:30:15;;;;;;;;;7.33;6.33;;;;;22.40;53.00;101210.03;5092582;27;45768;-59
2023/09/05 03:32:40;;;;;;;;;8.00;8.00;;;;;22.38;53.04;101203.91;5089112;27;70781;-59
2023/09/05 03:35:06;;;;;;;;;6.33;6.33;;;;;22.37;52.81;101216.59;5087146;27;55387;-59
2023/09/05 03:37:31;;;;;;;;;6.67;5.67;;;;;22.30;53.06;101218.97;5084911;27;45454;-59
2023/09/05 03:39:57;;;;;;;;;7.33;7.00;;;;;22.25;53.05;101205.03;5082351;27;71933;-59
2023/09/05 03:42:22;;;;;;;;;8.33;7.00;;;;;22.23;53.40;101214.31;5097149;27;69917;-60
2023/09/05 03:44:49;;;;;;;;;9.67;8.00;;;;;22.22;53.46;101207.16;5093596;27;45581;-59
2023/09/05 03:47:14;;;;;;;;;7.33;7.33;;;;;22.20;53.03;101204.59;5095625;27;64663;-59
2023/09/05 03:49:40;;;;;;;;;9.67;8.67;;;;;22.19;53.35;101192.06;5098506;27;71855;-59
2023/09/05 03:52:05;;;;;;;;;7.67;6.67;;;;;22.18;53.68;101184.91;5086003;27;45370;-59
2023/09/05 03:54:30;;;;;;;;;7.33;7.33;;;;;22.14;53.82;101180.78;5071512;27;47587;-59
2023/09/05 03:56:56;;;;;;;;;8.00;7.00;;;;;22.11;53.76;101173.81;5091706;27;45417;-59
2023/09/05 03:59:21;;;;;;;;;8.00;7.00;;;;;22.08;53.54;101173.25;5088186;27;73373;-59
2023/09/05 04:01:49;;;;;;;;;2.67;1.33;;;;;22.05;53.66;101168.97;5088620;27;71074;-59
2023/09/05 04:04:15;;;;;;;;;8.33;7.00;;;;;22.01;53.36;101178.38;5098343;27;45525;-59
2023/09/05 04:06:40;;;;;;;;;7.67;6.33;;;;;21.93;54.66;101175.53;5080599;27;45815;-59
2023/09/05 04:09:05;;;;;;;;;10.00;9.33;;;;;21.84;54.28;101177.22;5073624;27;73645;-59
2023/09/05 04:11:31;;;;;;;;;6.00;6.00;;;;;21.80;54.57;101170.38;5096974;27;70918;-59
2023/09/05 04:13:56;;;;;;;;;8.00;8.00;;;;;21.79;54.38;101169.50;5092428;27;67361;-59
2023/09/05 04:16:21;;;;;;;;;7.00;7.00;;;;;21.80;54.53;101171.22;5090643;27;55056;-59
2023/09/05 04:18:47;;;;;;;;;7.00;7.00;;;;;21.81;54.30;101174.78;5078295;27;72193;-59
2023/09/05 04:21:12;;;;;;;;;7.67;7.67;;;;;21.81;54.52;101181.06;5087412;27;45367;-59
2023/09/05 04:23:37;;;;;;;;;6.67;6.00;;;;;21.83;54.21;101185.50;5093380;27;63414;-59
2023/09/05 04:26:03;;;;;;;;;9.00;8.33;;;;;21.83;54.47;101185.50;5089600;27;45602;-59
2023/09/05 04:28:29;;;;;;;;;7.00;7.00;;;;;21.83;54.80;101186.34;5090217;27;55552;-59
2023/09/05 04:30:55;;;;;;;;;7.33;7.33;;;;;21.85;54.67;101188.91;5086292;27;45395;-59
2023/09/05 04:33:24;;;;;;;;;3.33;2.00;;;;;21.85;55.02;101197.03;5089950;27;45467;-59
2023/09/05 04:35:50;;;;;;;;;10.67;6.67;;;;;21.84;54.23;101203.44;5078279;27;45510;-59
2023/09/05 04:38:15;;;;;;;;;8.67;7.00;;;;;21.81;54.37;101202.72;5085388;27;46314;-59
2023/09/05 04:40:41;;;;;;;;;7.33;7.00;;;;;21.77;54.72;101204.00;5082053;27;68211;-59
2023/09/05 04:43:06;;;;;;;;;6.00;6.00;;;;;21.75;54.73;101205.16;5086639;27;67967;-59
2023/09/05 04:45:31;;;;;;;;;9.33;9.33;;;;;21.76;54.53;101212.28;5077560;27;45394;-59
2023/09/05 04:47:57;;;;;;;;;7.33;7.33;;;;;21.76;54.87;101225.81;5087893;27;66554;-59
2023/09/05 04:50:22;;;;;;;;;9.00;8.33;;;;;21.76;55.00;101226.66;5086890;27;67317;-59
2023/09/05 04:52:48;;;;;;;;;9.33;8.00;;;;;21.76;55.22;101223.09;5083798;27;45416;-59
2023/09/05 04:55:13;;;;;;;;;9.33;7.67;;;;;21.75;55.35;101224.94;5085723;27;45607;-59
2023/09/05 04:57:42;;;;;;;;;9.00;8.00;;;;;21.74;55.25;101238.63;5087503;27;46116;-59
2023/09/05 05:00:08;;;;;;;;;7.67;7.67;;;;;21.74;55.03;101242.16;5081171;27;45457;-59
2023/09/05 05:02:34;;;;;;;;;9.00;8.00;;;;;21.76;55.05;101245.59;5087681;27;45395;-59
2023/09/05 05:05:00;;;;;;;;;6.67;6.67;;;;;21.75;55.11;101243.88;5078606;27;45351;-59
2023/09/05 05:07:25;;;;;;;;;9.33;7.33;;;;;21.77;55.20;101250.03;5082932;27;45785;-59
2023/09/05 05:09:51;;;;;;;;;6.67;5.33;;;;;21.78;55.56;101253.59;5089813;27;45470;-60
2023/09/05 05:12:16;;;;;;;;;7.00;7.00;;;;;21.77;54.87;101252.75;5078127;27;64003;-60
2023/09/05 05:14:42;;;;;;;;;9.33;8.00;;;;;21.79;55.06;101256.16;5078437;27;45281;-59
2023/09/05 05:17:07;;;;;;;;;8.67;8.67;;;;;21.80;55.26;101247.03;5084359;27;45397;-59
2023/09/05 05:19:33;;;;;;;;;8.33;8.33;;;;;21.80;55.09;101240.78;5077727;27;45349;-59
2023/09/05 05:21:58;;;;;;;;;6.67;6.67;;;;;21.80;55.28;101248.91;5082165;27;45470;-59
2023/09/05 05:24:24;;;;;;;;;7.00;7.00;;;;;21.81;55.17;101246.03;5080126;27;58094;-59
2023/09/05 05:26:50;;;;;;;;;7.33;7.33;;;;;21.84;54.96;101247.63;5087800;27;46000;-60
2023/09/05 05:29:15;;;;;;;;;9.33;7.67;;;;;21.87;55.23;101252.75;5089207;27;45718;-60
2023/09/05 05:31:41;;;;;;;;;11.33;10.33;;;;;21.91;55.29;101258.75;5095385;27;45320;-59
2023/09/05 05:34:06;;;;;;;;;7.00;7.00;;;;;21.93;55.20;101257.59;5078433;27;45405;-60
2023/09/05 05:36:32;;;;;;;;;8.00;8.00;;;;;21.94;55.26;101244.91;5063382;28;45483;-60
2023/09/05 05:39:01;;;;;;;;;10.33;9.00;;;;;21.95;55.40;101247.50;5090059;27;45455;-60
2023/09/05 05:41:27;;;;;;;;;9.33;7.67;;;;;21.98;55.05;101247.22;5084391;27;45339;-60
2023/09/05 05:43:53;;;;;;;;;11.00;9.33;;;;;22.03;54.91;101252.22;5077906;27;45576;-60
2023/09/05 05:46:18;;;;;;;;;7.67;7.67;;;;;22.09;54.69;101253.50;5088278;27;46065;-59
2023/09/05 05:48:44;;;;;;;;;8.33;8.33;;;;;22.14;54.70;101249.34;5079729;27;45332;-60
2023/09/05 05:51:11;;;;;;;;;12.00;10.33;;;;;22.21;55.17;101251.50;5084224;27;45353;-60
2023/09/05 05:53:36;;;;;;;;;13.67;9.00;;;;;22.26;54.90;101249.22;5063021;28;45363;-60
2023/09/05 05:56:04;;;;;;;;;11.00;9.00;;;;;22.31;54.54;101244.22;5070926;27;74151;-60
2023/09/05 05:58:30;;;;;;;;;11.00;10.33;;;;;22.37;54.67;101250.97;5092581;27;45660;-60
2023/09/05 06:00:55;;;;;;;;;9.67;9.67;;;;;22.42;54.12;101252.25;5077069;27;45494;-60
2023/09/05 06:03:21;;;;;;;;;11.67;11.33;;;;;22.47;54.19;101251.81;5086518;27;69955;-60
2023/09/05 06:05:48;;;;;;;;;12.33;10.67;;;;;22.53;54.55;101253.97;5096696;27;46595;-60
2023/09/05 06:08:14;;;;;;;;;9.00;9.00;;;;;22.60;53.91;101251.50;5097341;27;45499;-60
2023/09/05 06:10:39;;;;;;;;;10.33;10.33;;;;;22.65;54.21;101254.66;5068504;27;45474;-60
2023/09/05 06:13:05;;;;;;;;;10.33;8.00;;;;;22.74;53.62;101256.50;5067108;28;45469;-60
2023/09/05 06:15:34;;;;;;;;;8.00;8.00;;;;;22.87;53.42;101258.88;5089199;27;45454;-59
2023/09/05 06:18:03;;;;;;;;;7.67;7.67;;;;;22.98;53.55;101259.72;5073892;27;45402;-59
2023/09/05 06:20:34;;;;;;;;;10.33;8.67;;;;;23.14;53.20;101268.13;5086276;27;45431;-59
2023/09/05 06:23:00;;;;;;;;;13.00;12.00;;;;;24.15;52.42;101269.19;5092241;27;45518;-61
2023/09/05 06:25:26;;;;;;;;;11.00;8.67;;;;;25.53;50.22;101272.28;5065960;28;46009;-60
2023/09/05 06:27:51;;;;;;;;;10.33;9.00;;;;;26.22;48.58;101267.53;5088445;27;45424;-60
2023/09/05 06:30:16;;;;;;;;;9.67;9.00;;;;;26.49;47.64;101281.00;5087415;27;69353;-60
2023/09/05 06:32:42;;;;;;;;;9.00;9.00;;;;;27.65;46.56;101278.94;5064929;27;45533;-60
2023/09/05 06:35:09;;;;;;;;;8.00;7.00;;;;;29.04;44.14;101276.25;5083893;27;46061;-59
2023/09/05 06:37:35;;;;;;;;;10.00;9.67;;;;;30.35;42.33;101270.94;5086542;27;45427;-61
2023/09/05 06:40:05;;;;;;;;;17.67;11.67;;;;;31.58;40.45;101269.72;5086707;27;45792;-60
2023/09/05 06:42:30;;;;;;;;;8.67;8.67;;;;;32.58;38.95;101268.28;5087676;27;45660;-60
2023/09/05 06:44:55;;;;;;;;;9.00;9.00;;;;;33.54;37.27;101263.28;5095930;27;46945;-60
2023/09/05 06:47:21;;;;;;;;;12.67;10.00;;;;;34.48;35.58;101268.25;5085991;27;68476;-60
2023/09/05 06:49:46;;;;;;;;;11.00;11.00;;;;;35.37;34.27;101268.91;5087946;27;58815;-61
2023/09/05 06:52:11;;;;;;;;;9.67;9.67;;;;;36.17;32.47;101274.44;5094722;27;55502;-61
2023/09/05 06:54:36;;;;;;;;;13.33;7.67;;;;;36.88;31.63;101267.13;5080080;27;70522;-61
2023/09/05 06:57:02;;;;;;;;;11.33;9.33;;;;;37.56;30.54;101274.97;5091485;27;67454;-62
2023/09/05 06:59:27;;;;;;;;;10.67;9.00;;;;;38.14;29.90;101264.72;5081230;27;45595;-62
2023/09/05 07:01:54;;;;;;;;;8.33;8.33;;;;;38.74;28.95;101262.41;5078706;27;53575;-63
2023/09/05 07:04:19;;;;;;;;;12.00;10.75;;;;;39.32;28.73;101260.19;5083273;27;46697;-62
2023/09/05 07:06:45;;;;;;;;;11.50;9.00;;;;;39.87;27.83;101265.84;5083597;27;72503;-62
2023/09/05 07:09:10;;;;;;;;;10.00;8.25;;;;;40.27;26.00;101270.09;5087949;27;45420;-62
2023/09/05 07:11:36;;;;;;;;;10.50;8.50;;;;;40.53;26.65;101275.91;5085590;27;45529;-62
2023/09/05 07:14:01;;;;;;;;;10.00;9.00;;;;;39.44;26.04;101268.38;5083735;27;46424;-62
2023/09/05 07:16:27;;;;;;;;;8.75;7.50;;;;;37.57;27.85;101265.56;5087730;27;45504;-62
2023/09/05 07:18:53;;;;;;;;;8.75;7.75;;;;;36.30;28.74;101260.41;5088287;27;66540;-62
2023/09/05 07:21:18;;;;;;;;;6.50;6.50;;;;;36.90;28.87;101267.72;5089061;27;51512;-62
2023/09/05 07:23:43;;;;;;;;;8.75;8.50;;;;;38.03;27.06;101266.47;5088486;27;46244;-62
2023/09/05 07:26:09;;;;;;;;;9.75;7.75;;;;;38.96;26.46;101272.75;5085844;27;45408;-62
2023/09/05 07:28:34;;;;;;;;;9.50;8.25;;;;;39.95;26.47;101287.63;5091707;27;65262;-62
2023/09/05 07:31:00;;;;;;;;;10.50;8.00;;;;;40.46;24.95;101278.91;5085601;27;45438;-62
2023/09/05 07:33:26;;;;;;;;;6.75;6.75;;;;;39.64;25.41;101284.50;5092059;27;45369;-62
2023/09/05 07:35:51;;;;;;;;;8.25;8.00;;;;;37.99;26.27;101283.84;5100072;27;45259;-62
2023/09/05 07:38:20;;;;;;;;;7.00;7.00;;;;;36.38;27.71;101284.16;5092569;27;64959;-62
2023/09/05 07:40:47;;;;;;;;;7.50;7.50;;;;;34.80;29.11;101269.03;5094987;27;45330;-62
2023/09/05 07:43:12;;;;;;;;;6.50;6.50;;;;;33.67;30.98;101268.72;5096126;27;45451;-62
2023/09/05 07:45:38;;;;;;;;;5.50;5.50;;;;;32.77;31.64;101272.97;5091468;27;45626;-62
2023/09/05 07:48:04;;;;;;;;;8.00;8.00;;;;;32.00;32.50;101273.25;5091988;27;45467;-62
2023/09/05 07:50:29;;;;;;;;;5.50;5.50;;;;;31.35;33.34;101275.53;5099926;27;45370;-62
2023/09/05 07:52:55;;;;;;;;;7.00;5.50;;;;;30.82;34.69;101270.50;5098816;27;45462;-62
2023/09/05 07:55:20;;;;;;;;;7.00;7.00;;;;;30.42;35.16;101281.97;5080742;27;73243;-62
2023/09/05 07:57:46;;;;;;;;;7.00;7.00;;;;;30.04;35.44;101271.28;5088492;27;45332;-62
2023/09/05 08:00:15;;;;;;;;;8.50;8.50;;;;;29.59;36.05;101273.22;5068568;28;62481;-62
2023/09/05 08:02:41;;;;;;;;;9.67;9.67;;;;;29.26;37.36;101270.88;5088348;27;46335;-62
2023/09/05 08:05:07;;;;;;;;;13.75;10.75;;;;;29.11;37.28;101274.47;5092333;27;45423;-62
2023/09/05 08:07:32;;;;;;;;;11.67;11.67;;;;;29.05;37.45;101276.03;5088785;27;45264;-62
2023/09/05 08:10:00;;;;;;;;;9.50;8.25;;;;;29.07;37.10;101275.84;5066637;28;60096;-62
2023/09/05 08:12:25;;;;;;;;;8.00;7.00;;;;;29.01;37.43;101282.94;5091042;27;47294;-62
2023/09/05 08:14:51;;;;;;;;;10.25;7.00;;;;;28.99;38.01;101279.53;5099575;27;45428;-62
2023/09/05 08:17:16;;;;;;;;;7.75;7.75;;;;;29.04;38.05;101281.72;5083504;27;66787;-62
2023/09/05 08:19:41;;;;;;;;;8.25;8.25;;;;;29.14;37.95;101278.72;5070331;27;56018;-62
2023/09/05 08:22:07;;;;;;;;;10.50;7.25;;;;;29.21;38.23;101279.66;5086299;27;73049;-62
2023/09/05 08:24:32;;;;;;;;;12.00;9.00;;;;;29.29;38.60;101279.56;5086037;27;66004;-62
2023/09/05 08:26:57;;;;;;;;;8.50;7.00;;;;;29.35;37.97;101281.56;5089265;27;45373;-62
2023/09/05 08:29:23;;;;;;;;;8.75;8.25;;;;;29.45;38.05;101285.91;5062082;27;45487;-62
2023/09/05 08:31:49;;;;;;;;;7.00;7.00;;;;;29.60;37.80;101289.47;5083610;27;45970;-62
2023/09/05 08:34:14;;;;;;;;;7.67;6.00;;;;;29.74;38.19;101281.41;5092738;27;45415;-62
2023/09/05 08:36:40;;;;;;;;;7.00;7.00;;;;;29.78;37.52;101285.50;5090987;27;64852;-62
2023/09/05 08:39:06;;;;;;;;;12.25;8.25;;;;;29.86;37.47;101286.22;5090917;27;45242;-62
2023/09/05 08:41:31;;;;;;;;;8.75;8.75;;;;;29.91;37.67;101287.53;5087324;27;46474;-62
2023/09/05 08:43:57;;;;;;;;;6.75;5.75;;;;;30.09;37.95;101287.13;5089071;27;45493;-62
2023/09/05 08:46:23;;;;;;;;;8.25;8.25;;;;;30.28;37.72;101283.72;5080484;27;45691;-62
2023/09/05 08:48:49;;;;;;;;;8.75;8.00;;;;;30.47;37.57;101279.53;5077458;27;45445;-62
2023/09/05 08:51:17;;;;;;;;;7.00;7.00;;;;;30.64;36.93;101282.84;5098880;27;47143;-62
2023/09/05 08:53:56;;;;;;;;;14.25;7.25;;;;;31.02;36.76;101281.66;5091270;27;45377;-62
2023/09/05 08:56:21;;;;;;;;;8.33;7.67;;;;;32.28;35.29;101279.69;5066130;27;45303;-62
2023/09/05 08:58:47;;;;;;;;;8.25;8.25;;;;;33.59;33.87;101291.03;5091351;27;45460;-62
2023/09/05 09:01:12;;;;;;;;;7.00;6.75;;;;;35.06;32.70;101292.81;5069225;27;46076;-62
2023/09/05 09:03:37;;;;;;;;;7.00;7.00;;;;;36.40;30.67;101296.69;5085503;27;71204;-62
2023/09/05 09:06:03;;;;;;;;;7.75;7.00;;;;;37.47;29.71;101293.06;5089561;27;69419;-62
2023/09/05 09:08:45;;;;;;;;;7.50;7.50;;;;;38.51;28.90;101296.75;5085948;27;45537;-62
2023/09/05 09:11:11;;;;;;;;;9.33;9.33;;;;;39.36;26.57;101296.63;5092333;27;46061;-62
2023/09/05 09:13:40;;;;;;;;;11.50;9.25;;;;;40.08;27.41;101302.25;5078797;27;45508;-63
2023/09/05 09:16:06;;;;;;;;;7.25;7.00;;;;;40.64;25.86;101297.19;5069061;27;45503;-62
2023/09/05 09:18:32;;;;;;;;;10.33;9.33;;;;;41.01;25.06;101295.50;5068484;28;45619;-62
2023/09/05 09:21:08;;;;;;;;;11.75;8.50;;;;;41.57;24.73;101294.13;5091845;27;47650;-62
2023/09/05 09:23:35;;;;;;;;;6.50;6.50;;;;;42.16;23.96;101292.84;5066786;27;45358;-62
2023/09/05 09:26:02;;;;;;;;;9.25;9.00;;;;;42.40;23.06;101290.38;5100399;27;45360;-62
2023/09/05 09:28:34;;;;;;;;;8.50;8.00;;;;;42.64;23.70;101287.81;5101978;27;45469;-62
2023/09/05 09:31:13;;;;;;;;;7.00;7.00;;;;;43.12;22.39;101289.47;5095353;27;47364;-62
2023/09/05 09:33:39;;;;;;;;;8.00;8.00;;;;;43.67;22.06;101283.09;5094692;27;45445;-62
2023/09/05 09:36:09;;;;;;;;;10.75;9.25;;;;;44.16;22.24;101285.00;5091631;27;45415;-63
2023/09/05 09:38:35;;;;;;;;;5.75;5.75;;;;;44.51;21.32;101288.66;5094722;27;45411;-63
2023/09/05 09:41:03;;;;;;;;;8.25;8.00;;;;;44.68;21.68;101281.75;5101635;27;46394;-63
2023/09/05 09:43:32;;;;;;;;;7.75;7.50;;;;;44.04;20.29;101290.13;5079588;27;45486;-63
2023/09/05 09:45:59;;;;;;;;;8.50;8.25;;;;;43.54;21.56;101290.97;5100384;27;45365;-63
2023/09/05 09:48:28;;;;;;;;;7.25;7.25;;;;;43.70;20.96;101282.50;5076996;27;45379;-63
2023/09/05 09:50:57;;;;;;;;;10.75;9.00;;;;;44.16;21.43;101276.59;5086837;27;46170;-63
2023/09/05 09:53:37;;;;;;;;;9.00;7.25;;;;;44.68;21.12;101277.00;5095853;27;45414;-63
2023/09/05 09:56:08;;;;;;;;;11.00;8.75;;;;;45.06;20.52;101271.53;5071969;27;45435;-62
2023/09/05 09:58:34;;;;;;;;;8.50;8.00;;;;;45.30;20.20;101265.09;5099663;27;45628;-62
2023/09/05 10:01:01;;;;;;;;;12.50;8.00;;;;;45.31;19.78;101266.75;5071038;27;46335;-62
2023/09/05 10:03:26;;;;;;;;;9.50;8.75;;;;;45.43;19.90;101274.72;5066362;27;45735;-63
2023/09/05 10:05:52;;;;;;;;;7.50;7.50;;;;;45.41;19.79;101269.44;5062778;27;45414;-63
2023/09/05 10:08:18;;;;;;;;;6.75;6.75;;;;;45.37;19.43;101270.31;5067244;27;45608;-63
2023/09/05 10:10:45;;;;;;;;;6.50;6.50;;;;;45.27;20.32;101265.69;5075181;27;46046;-63
2023/09/05 10:13:11;;;;;;;;;11.00;8.00;;;;;45.39;20.23;101268.88;5087726;27;45735;-63
2023/09/05 10:15:38;;;;;;;;;9.25;9.00;;;;;45.43;18.61;101269.13;5056241;27;45470;-63
2023/09/05 10:18:07;;;;;;;;;11.75;10.00;;;;;45.09;19.08;101270.09;5079582;27;45481;-63
2023/09/05 10:20:34;;;;;;;;;7.25;7.25;;;;;44.54;20.01;101267.59;5078132;27;45418;-63
2023/09/05 10:22:59;;;;;;;;;6.75;5.50;;;;;44.08;20.52;101269.66;5068105;27;45534;-63
2023/09/05 10:25:26;;;;;;;;;8.50;6.75;;;;;44.04;20.27;101264.94;5085979;27;65371;-63
2023/09/05 10:27:51;;;;;;;;;8.25;7.75;;;;;44.20;20.75;101266.47;5094355;27;69545;-63
2023/09/05 10:30:21;;;;;;;;;7.50;7.25;;;;;44.07;20.04;101258.75;5094323;27;73211;-63
2023/09/05 10:32:47;;;;;;;;;5.25;5.25;;;;;43.37;19.90;101256.91;5074087;27;45624;-63
2023/09/05 10:35:17;;;;;;;;;10.25;8.00;;;;;42.77;20.62;101257.66;5081058;27;45557;-63
2023/09/05 10:38:02;;;;;;;;;10.33;9.33;;;;;42.59;20.87;101251.50;5090293;27;45547;-62
2023/09/05 10:40:38;;;;;;;;;9.00;9.00;;;;;42.73;21.76;101245.38;5069413;27;46338;-63
2023/09/05 10:43:18;;;;;;;;;9.25;9.25;;;;;42.97;21.70;101246.41;5081910;27;45446;-63
2023/09/05 10:45:44;;;;;;;;;9.00;9.00;;;;;43.17;21.38;101247.50;5089162;27;45335;-63
2023/09/05 10:48:17;;;;;;;;;7.00;7.00;;;;;43.28;21.83;101251.91;5086510;27;45498;-63
2023/09/05 10:51:06;;;;;;;;;9.00;9.00;;;;;43.37;21.32;101243.75;5073295;27;46359;-63
2023/09/05 10:53:33;;;;;;;;;11.50;11.50;;;;;43.41;21.38;101239.25;5083778;27;45561;-63
2023/09/05 10:55:59;;;;;;;;;10.75;9.50;;;;;43.47;21.53;101240.06;5088063;27;45536;-63
2023/09/05 10:58:53;;;;;;;;;10.00;8.00;;;;;43.30;21.69;101243.25;5084550;27;45461;-63
2023/09/05 11:01:34;;;;;;;;;9.00;8.25;;;;;43.11;21.18;101251.44;5071810;27;48406;-63
2023/09/05 11:04:03;;;;;;;;;8.25;7.75;;;;;42.94;21.41;101244.19;5082570;27;45256;-63
2023/09/05 11:06:32;;;;;;;;;8.75;7.00;;;;;42.78;20.10;101240.59;5092658;27;45779;-63
2023/09/05 11:08:59;;;;;;;;;6.75;6.75;;;;;42.64;21.09;101248.69;5089706;27;45385;-63
2023/09/05 11:11:24;;;;;;;;;6.50;6.00;;;;;42.53;19.79;101247.06;5084577;27;46082;-63
2023/09/05 11:13:50;;;;;;;;;9.00;7.00;;;;;42.24;20.40;101244.88;5083483;27;72164;-63
2023/09/05 11:16:15;;;;;;;;;7.75;7.25;;;;;41.86;21.20;101252.63;5073237;27;45475;-63
2023/09/05 11:18:47;;;;;;;;;8.00;8.00;;;;;41.48;21.35;101247.19;5087469;27;54506;-63
2023/09/05 11:21:22;;;;;;;;;7.75;7.00;;;;;41.19;21.84;101249.59;5081601;27;47248;-63
2023/09/05 11:23:52;;;;;;;;;8.75;7.75;;;;;41.25;21.95;101242.06;5092224;27;45279;-63